Tonasket, WA

4:46 AM PDT on October 02, 2014 (GMT -0700)
Pangborn Memorial | Change Station
CLOSE
Current Station
Airport
Location: Wenatchee,
Elevation: 1247 ft
Nearby Weather Stations

Elev 1247 ft 47.40 °N, 120.21 °W | Updated 51 minutes ago

Partly Cloudy
Partly Cloudy
57 °F
Feels Like 57 °F
N
12
Wind Variable Wind from NW

Today
High -- | Low -- °F
--% Chance of Precip.
Yesterday
High -- | Low -- °F
Precip. -- in
6:58 AM 6:34 PM
First Quarter, 58% visible
Pressure 30.12 in
Visibility 10.0 miles
Clouds Clear
Dew Point 35 °F
Humidity 44%
Rainfall 0.00 in
Snow Depth 0 in , 2 in , 0 in
UV 0 out of 12
Pollen 5.60 out of 12
Air Quality Not available.
Flu Activity Not available.
METAR KEAT 021055Z AUTO 31010KT 10SM CLR 14/02 A3013 RMK AO2 SLP199 T01390017

More Conditions Fewer Conditions

Pressure 30.12 in
Visibility 10.0 miles
Clouds Clear
Dew Point 35 °F
Humidity 44%
Rainfall 0.00 in
Snow Depth 0 in , 2 in , 0 in
UV 0 out of 12
Pollen 5.60 out of 12
Air Quality Not available.
Flu Activity Not available.
METAR KEAT 021055Z AUTO 31010KT 10SM CLR 14/02 A3013 RMK AO2 SLP199 T01390017

More Conditions Fewer Conditions

10-Day Weather Forecast

Almanac

Astronomy

Oct. 02, 2014 Rise Set
Actual Time 6:58 AM PDT 6:34 PM PDT
Civil Twilight 6:27 AM PDT 7:05 PM PDT
Nautical Twilight 5:50 AM PDT 7:41 PM PDT
Astronomical Twilight 5:13 AM PDT 8:18 PM PDT
Moon 3:09 PM PDT No Moon Set
Length of Visible Light 12h 38m
Length of Day
11h 35m
Tomorrow will be 3m 31s shorter.
First Quarter, 58% of the Moon is Illuminated
Today
First Quarter
Oct 8
Full
Oct 15
Last Quarter
Oct 23
New
Oct 30
First Quarter

Today's Extremes

State Highs State Lows

Community

WunderPhotos

Upload Photos

1,758,221 photos uploaded!

WunderBlogs® & News

Nearby

Snow Depth

Station Depth Elevation
Beaver Pass 0 in 3620 ft
Quartz Peak 2 in 4700 ft
June Lake 0 in 3340 ft
White Pass E.S. 0 in 4500 ft
Mount Crag 0 in 4050 ft

Earthquake Activity

City Distance Mag. Time & Date
No recent earthquake activity has been reported nearby.
Minimum magnitude displayed is 2.5.

Coastal Water Temperatures

Place Temperature
No Stations Reporting

Nearby Weather Stations